Time;durP1;ratioP1;P1;durP2;ratioP2;P2;SDS_P1;SDS_P2;PMS_P1;PMS_P2;Temp;Humidity;BMP_temperature;BMP_pressure;BME280_temperature;BME280_humidity;BME280_pressure;Samples;Min_cycle;Max_cycle;Signal;HPM_P1;HPM_P2
2022/02/04 00:08:04;;;;;;;20.23;9.25;;;;;;;3.94;100.00;99402.19;5015756;28;20048;-78
2022/02/04 00:23:21;;;;;;;21.75;9.25;;;;;;;3.89;100.00;99384.03;5009205;28;20078;-78
2022/02/04 00:26:15;;;;;;;23.73;9.55;;;;;;;3.81;100.00;99382.38;5014596;28;20050;-78
2022/02/04 00:29:26;;;;;;;19.83;8.27;;;;;;;3.83;100.00;99385.81;5028627;28;20114;-78
2022/02/04 00:32:08;;;;;;;19.58;8.30;;;;;;;3.90;100.00;99393.56;5014894;28;20049;-78
2022/02/04 00:35:04;;;;;;;20.58;9.07;;;;;;;3.87;100.00;99379.75;5015497;28;20038;-78
2022/02/04 00:40:52;;;;;;;16.88;9.23;;;;;;;4.01;100.00;99382.28;5028608;28;20042;-78
2022/02/04 00:43:38;;;;;;;19.85;9.82;;;;;;;3.90;100.00;99379.72;5014649;28;20045;-78
2022/02/04 00:46:55;;;;;;;17.05;7.85;;;;;;;3.81;100.00;99353.88;5015227;28;20378;-77
2022/02/04 00:52:43;;;;;;;16.90;8.07;;;;;;;3.96;100.00;99369.31;5015227;28;20121;-78
2022/02/04 00:55:37;;;;;;;16.83;9.90;;;;;;;3.95;100.00;99359.84;5014980;28;20050;-78
2022/02/04 01:25:54;;;;;;;15.30;7.22;;;;;;;4.17;100.00;99371.81;5028032;28;20107;-77
2022/02/04 01:26:05;;;;;;;15.50;7.43;;;;;;;4.18;100.00;99331.19;5013947;28;20098;-77
2022/02/04 01:28:52;;;;;;;17.25;7.90;;;;;;;4.26;100.00;99329.41;5000151;28;20038;-78
2022/02/04 01:31:37;;;;;;;16.67;8.15;;;;;;;4.29;100.00;99336.28;5014584;28;20042;-77
2022/02/04 01:34:22;;;;;;;15.32;7.38;;;;;;;4.26;100.00;99313.88;5027836;28;20042;-78
2022/02/04 01:37:06;;;;;;;18.05;8.23;;;;;;;4.14;100.00;99314.81;4999769;28;20041;-78
2022/02/04 01:39:50;;;;;;;17.42;8.07;;;;;;;4.11;100.00;99301.84;5013792;28;20046;-78
2022/02/04 01:42:34;;;;;;;15.75;6.75;;;;;;;4.21;100.00;99311.28;5014317;28;20106;-77
2022/02/04 01:45:19;;;;;;;14.15;7.75;;;;;;;4.28;100.00;99308.66;5027595;28;20049;-78
2022/02/04 01:48:03;;;;;;;14.10;7.38;;;;;;;4.23;100.00;99298.31;5014243;28;20432;-77
2022/02/04 01:50:50;;;;;;;16.50;9.23;;;;;;;4.21;100.00;99295.72;4999769;28;20042;-78
2022/02/04 01:53:35;;;;;;;15.35;7.72;;;;;;;4.24;100.00;99294.00;5027357;28;20095;-78
2022/02/04 01:56:19;;;;;;;14.98;7.57;;;;;;;4.26;100.00;99300.91;5013161;28;20054;-78
2022/02/04 01:59:04;;;;;;;15.13;7.10;;;;;;;4.22;100.00;99292.28;5014203;28;20049;-77
2022/02/04 02:01:48;;;;;;;19.25;8.93;;;;;;;4.21;100.00;99285.34;4999713;28;20045;-77
2022/02/04 02:04:33;;;;;;;22.05;8.73;;;;;;;4.26;100.00;99294.81;5013401;28;20443;-77
2022/02/04 02:07:20;;;;;;;24.10;9.63;;;;;;;4.25;100.00;99288.78;5014016;28;20041;-77
2022/02/04 02:10:09;;;;;;;19.50;8.80;;;;;;;4.31;100.00;99287.88;5013319;28;20038;-77
2022/02/04 02:13:46;;;;;;;15.50;7.75;;;;;;;4.32;100.00;99287.00;5027162;28;20084;-77
2022/02/04 02:16:21;;;;;;;15.88;8.15;;;;;;;4.29;100.00;99277.53;5013830;28;20042;-78
2022/02/04 02:49:45;;;;;;;17.92;7.25;;;;;;;3.97;100.00;99259.63;4982098;28;20062;-77
2022/02/04 02:53:14;;;;;;;13.35;6.82;;;;;;;4.03;100.00;99262.19;4998986;28;20058;-77
2022/02/04 02:55:51;;;;;;;12.70;6.68;;;;;;;4.06;100.00;99266.47;5013236;28;20435;-77
2022/02/04 02:58:38;;;;;;;12.52;6.97;;;;;;;4.06;100.00;99267.31;5012640;28;20057;-77
2022/02/04 03:01:22;;;;;;;15.90;8.10;;;;;;;4.07;100.00;99263.88;5012615;28;20133;-77
2022/02/04 03:04:11;;;;;;;12.55;7.40;;;;;;;4.09;100.00;99264.72;5012619;28;20335;-77
2022/02/04 03:06:55;;;;;;;15.70;7.47;;;;;;;4.09;100.00;99250.91;5026468;28;20397;-77
2022/02/04 03:09:40;;;;;;;14.60;7.20;;;;;;;4.12;100.00;99262.09;5012454;28;20054;-77
2022/02/04 03:12:24;;;;;;;21.40;9.57;;;;;;;4.12;100.00;99253.47;5026366;28;20045;-77
2022/02/04 03:15:09;;;;;;;17.77;9.88;;;;;;;4.17;100.00;99265.53;5026441;28;20046;-77
2022/02/04 03:18:01;;;;;;;14.38;7.70;;;;;;;4.21;100.00;99267.22;5012504;28;20078;-77
2022/02/04 03:20:49;;;;;;;19.98;11.48;;;;;;;4.14;100.00;99249.13;5013044;28;20355;-77
2022/02/04 03:23:37;;;;;;;17.80;9.70;;;;;;;4.20;100.00;99252.53;5012337;28;20049;-77
2022/02/04 03:26:48;;;;;;;14.25;7.78;;;;;;;4.23;100.00;99256.84;5012316;28;20115;-77
2022/02/04 03:29:31;;;;;;;16.27;7.72;;;;;;;4.12;100.00;99248.28;5012858;28;20120;-77
2022/02/04 03:32:19;;;;;;;19.23;8.65;;;;;;;4.17;100.00;99262.94;5026158;28;20057;-77
2022/02/04 03:35:04;;;;;;;24.80;10.35;;;;;;;4.14;100.00;99256.91;5012893;28;20038;-77
2022/02/04 03:37:51;;;;;;;35.67;16.00;;;;;;;4.01;100.00;99256.16;5012189;28;20115;-77
2022/02/04 03:40:36;;;;;;;29.70;12.85;;;;;;;3.99;100.00;99255.28;5012134;28;20121;-77
2022/02/04 03:43:20;;;;;;;25.08;13.00;;;;;;;3.93;100.00;99240.66;5012797;28;20416;-77
2022/02/04 03:46:05;;;;;;;24.67;10.48;;;;;;;3.96;100.00;99242.34;5012104;28;20069;-77
2022/02/04 03:48:50;;;;;;;28.73;11.55;;;;;;;3.94;100.00;99244.97;5011635;28;20508;-77
2022/02/04 03:51:34;;;;;;;49.25;17.75;;;;;;;3.93;100.00;99242.38;5012654;28;20046;-77
2022/02/04 03:54:19;;;;;;;38.13;14.95;;;;;;;3.83;100.00;99232.94;5025888;28;20049;-77
2022/02/04 03:57:03;;;;;;;30.83;14.27;;;;;;;3.92;100.00;99238.94;5025896;28;20040;-77
2022/02/04 03:59:48;;;;;;;22.67;11.35;;;;;;;3.89;100.00;99230.31;5012586;28;20111;-77
2022/02/04 04:02:32;;;;;;;17.90;10.55;;;;;;;3.96;100.00;99237.16;5015140;28;20046;-77
2022/02/04 04:05:16;;;;;;;18.52;8.40;;;;;;;3.90;100.00;99237.22;5029189;28;20034;-77
2022/02/04 04:08:01;;;;;;;12.38;7.28;;;;;;;3.91;100.00;99245.00;5015081;28;20048;-77
2022/02/04 04:10:45;;;;;;;14.52;7.88;;;;;;;3.91;100.00;99238.94;5015847;28;20106;-77
2022/02/04 04:13:30;;;;;;;24.63;11.38;;;;;;;3.88;100.00;99233.78;5015872;28;20038;-77
2022/02/04 04:16:15;;;;;;;26.85;16.08;;;;;;;3.94;100.00;99238.94;5028901;28;20431;-76
2022/02/04 04:18:59;;;;;;;23.23;12.00;;;;;;;3.95;100.00;99236.31;5028991;28;20078;-77
2022/02/04 04:21:44;;;;;;;18.75;9.45;;;;;;;3.96;100.00;99238.06;5001180;28;20069;-77
2022/02/04 04:24:28;;;;;;;12.93;8.27;;;;;;;4.00;100.00;99241.47;5014885;28;20046;-76
2022/02/04 04:27:13;;;;;;;11.68;7.53;;;;;;;4.00;100.00;99233.69;5015578;28;20045;-77
2022/02/04 04:29:57;;;;;;;12.70;6.70;;;;;;;4.02;100.00;99236.28;5015012;28;20046;-77
2022/02/04 04:32:43;;;;;;;13.90;7.18;;;;;;;4.07;100.00;99250.91;5028623;28;20042;-77
2022/02/04 04:35:28;;;;;;;8.95;5.63;;;;;;;4.04;100.00;99237.97;5034385;28;20114;-77
2022/02/04 04:38:26;;;;;;;11.45;6.43;;;;;;;4.10;100.00;99243.13;5035130;28;20098;-77
2022/02/04 05:29:10;;;;;;;16.67;7.82;;;;;;;3.85;100.00;99213.94;5033375;28;20045;-79
2022/02/04 05:31:54;;;;;;;13.50;6.82;;;;;;;3.98;100.00;99209.53;5019841;28;20041;-79
2022/02/04 05:34:39;;;;;;;12.68;7.78;;;;;;;4.02;100.00;99213.81;5019701;28;20049;-79
2022/02/04 05:37:24;;;;;;;13.40;7.90;;;;;;;4.01;100.00;99199.13;5033556;28;20052;-78
2022/02/04 05:40:13;;;;;;;16.17;7.45;;;;;;;4.06;100.00;99212.91;5033505;28;20397;-78
2022/02/04 05:43:02;;;;;;;16.35;9.57;;;;;;;4.11;100.00;99203.38;5033506;28;20037;-78
2022/02/04 05:46:01;;;;;;;17.58;9.32;;;;;;;4.15;100.00;99218.00;5033362;28;20431;-78
2022/02/04 05:48:51;;;;;;;27.77;12.20;;;;;;;4.12;100.00;99215.44;5033280;28;20385;-78
2022/02/04 05:51:46;;;;;;;46.35;18.85;;;;;;;4.09;100.00;99209.44;5033999;28;20069;-78
2022/02/04 05:57:25;;;;;;;45.78;17.77;;;;;;;4.16;100.00;99211.09;5033360;28;20037;-78
2022/02/04 06:00:39;;;;;;;41.50;19.00;;;;;;;4.17;100.00;99218.00;5019485;28;20049;-78
2022/02/04 06:12:43;;;;;;;47.65;21.77;;;;;;;4.14;100.00;99218.88;5033735;28;20186;-78
2022/02/04 06:24:26;;;;;;;54.22;25.23;;;;;;;3.70;100.00;99152.72;5032344;28;20045;-78
2022/02/04 06:27:10;;;;;;;52.20;27.35;;;;;;;4.21;100.00;99225.75;5033570;28;20042;-77
2022/02/04 06:29:56;;;;;;;45.65;25.17;;;;;;;4.22;100.00;99235.25;5019088;28;20046;-78
2022/02/04 06:32:41;;;;;;;47.97;26.58;;;;;;;4.17;100.00;99229.25;5032593;28;20125;-78
2022/02/04 06:35:26;;;;;;;45.53;26.98;;;;;;;4.14;100.00;99234.44;5018750;28;20038;-78
2022/02/04 06:38:10;;;;;;;38.40;22.05;;;;;;;4.18;100.00;99230.09;5033042;28;20399;-77
2022/02/04 06:40:55;;;;;;;39.55;20.10;;;;;;;4.17;100.00;99226.66;5032982;28;20083;-78
2022/02/04 06:43:40;;;;;;;36.47;19.50;;;;;;;4.22;100.00;99237.84;5033066;28;20048;-77
2022/02/04 06:46:24;;;;;;;36.28;16.85;;;;;;;4.24;100.00;99240.41;5032140;28;20102;-78
2022/02/04 06:49:08;;;;;;;29.00;15.55;;;;;;;4.19;100.00;99235.28;5031947;28;20155;-78
2022/02/04 06:51:53;;;;;;;34.65;19.20;;;;;;;4.22;100.00;99230.06;5018670;28;20102;-78
2022/02/04 06:54:37;;;;;;;30.48;16.58;;;;;;;4.26;100.00;99235.19;5032940;28;20041;-78
2022/02/04 06:57:22;;;;;;;30.17;20.77;;;;;;;4.27;100.00;99236.94;5033070;28;20041;-78
2022/02/04 07:00:07;;;;;;;31.55;24.20;;;;;;;4.25;100.00;99238.69;5033311;28;20090;-77
2022/02/04 07:02:52;;;;;;;43.00;32.30;;;;;;;4.27;100.00;99242.13;5018563;28;20049;-78
2022/02/04 07:05:51;;;;;;;49.50;37.33;;;;;;;4.21;100.00;99241.28;5032933;28;20117;-77
2022/02/04 07:08:47;;;;;;;47.60;37.85;;;;;;;4.30;100.00;99244.69;5033081;28;20041;-77
2022/02/04 07:20:16;;;;;;;23.10;12.65;;;;;;;4.32;100.00;99245.53;5011371;28;20052;-77
2022/02/04 07:23:00;;;;;;;25.88;14.30;;;;;;;4.29;100.00;99233.47;5024690;28;20090;-77
2022/02/04 07:25:45;;;;;;;30.80;19.45;;;;;;;4.38;100.00;99240.28;5012120;28;20046;-77
2022/02/04 07:28:29;;;;;;;24.30;15.18;;;;;;;4.42;100.00;99255.81;5012132;28;20077;-77
2022/02/04 07:31:15;;;;;;;22.02;12.48;;;;;;;4.40;100.00;99254.09;5012155;28;20381;-77
2022/02/04 07:34:17;;;;;;;18.30;10.05;;;;;;;4.31;100.00;99246.41;5010760;28;20038;-77
2022/02/04 07:43:10;;;;;;;14.43;7.95;;;;;;;4.34;100.00;99247.22;5028070;28;20069;-77
2022/02/04 07:45:54;;;;;;;20.77;12.18;;;;;;;4.22;100.00;99229.19;5000614;28;20297;-77
2022/02/04 07:48:40;;;;;;;22.02;11.68;;;;;;;4.34;100.00;99256.75;5014807;28;20053;-77
2022/02/04 07:51:24;;;;;;;23.58;13.45;;;;;;;4.30;100.00;99247.28;5029072;28;20053;-77
2022/02/04 07:54:09;;;;;;;25.98;13.85;;;;;;;4.34;100.00;99230.81;5000638;28;20092;-77
2022/02/04 07:56:53;;;;;;;28.70;14.25;;;;;;;4.43;100.00;99247.16;5014358;28;20054;-77
2022/02/04 07:59:38;;;;;;;23.90;12.63;;;;;;;4.40;100.00;99244.59;5015760;28;20053;-77
2022/02/04 08:02:23;;;;;;;24.52;11.43;;;;;;;4.45;100.00;99241.94;5014858;28;20479;-77
2022/02/04 08:05:10;;;;;;;30.40;12.77;;;;;;;4.44;100.00;99254.06;5013131;28;20054;-77
2022/02/04 08:10:47;;;;;;;19.70;8.88;;;;;;;4.54;100.00;99238.41;5014093;28;20092;-77
2022/02/04 08:13:49;;;;;;;15.70;6.95;;;;;;;4.64;100.00;99243.47;5028044;28;20099;-77
2022/02/04 08:37:37;;;;;;;16.83;9.60;;;;;;;4.81;100.00;99251.13;5028611;28;20046;-77
2022/02/04 08:55:23;;;;;;;43.85;27.27;;;;;;;4.99;100.00;99237.06;5028485;28;20107;-77
2022/02/04 09:01:14;;;;;;;25.35;13.90;;;;;;;5.05;100.00;99249.13;5015127;28;19994;-77
2022/02/04 09:04:16;;;;;;;24.35;13.00;;;;;;;4.98;100.00;99250.94;5028249;28;20072;-77
2022/02/04 09:07:05;;;;;;;21.42;12.77;;;;;;;5.00;100.00;99253.50;5015292;28;20046;-77
2022/02/04 09:09:53;;;;;;;21.73;11.27;;;;;;;5.05;100.00;99252.56;5014380;28;20454;-77
2022/02/04 09:21:35;;;;;;;83.00;36.22;;;;;;;5.14;100.00;99259.41;5014880;28;20046;-77
2022/02/04 09:24:20;;;;;;;185.07;70.05;;;;;;;5.31;100.00;99261.78;5028022;28;20037;-77
2022/02/04 09:27:05;;;;;;;117.07;50.22;;;;;;;5.43;100.00;99265.94;5014803;28;20053;-77
2022/02/04 09:29:49;;;;;;;74.40;34.13;;;;;;;5.46;100.00;99253.81;5000560;28;20062;-78
2022/02/04 09:32:36;;;;;;;133.77;62.15;;;;;;;5.49;100.00;99245.09;5014941;28;20344;-77
2022/02/04 09:35:23;;;;;;;76.13;35.42;;;;;;;5.69;100.00;99260.41;5014476;28;20050;-77
2022/02/04 09:38:08;;;;;;;50.83;24.58;;;;;;;5.70;100.00;99244.81;5013831;28;20053;-77
2022/02/04 09:40:53;;;;;;;35.38;19.02;;;;;;;5.89;100.00;99254.94;5014582;28;20060;-77
2022/02/04 09:43:38;;;;;;;34.38;19.48;;;;;;;6.00;100.00;99256.53;5014822;28;20038;-77
2022/02/04 09:46:22;;;;;;;33.30;17.17;;;;;;;6.08;100.00;99254.69;5000012;28;20057;-77
2022/02/04 09:49:17;;;;;;;30.45;17.85;;;;;;;6.13;100.00;99246.78;5014527;28;20046;-77
2022/02/04 10:18:49;;;;;;;27.80;15.45;;;;;;;6.63;100.00;99241.59;5027298;28;20060;-77
2022/02/04 10:21:34;;;;;;;29.08;15.30;;;;;;;6.69;100.00;99247.56;5013548;28;20042;-77
2022/02/04 10:24:23;;;;;;;23.58;15.05;;;;;;;6.76;100.00;99236.19;5013651;28;20046;-77
2022/02/04 10:27:19;;;;;;;25.05;14.52;;;;;;;6.94;100.00;99234.09;5014197;28;20158;-77
2022/02/04 10:30:06;;;;;;;27.52;15.18;;;;;;;7.09;100.00;99232.94;5013642;28;20037;-77
2022/02/04 10:32:51;;;;;;;27.90;14.60;;;;;;;7.12;100.00;99227.69;5027016;28;20431;-77
2022/02/04 10:35:37;;;;;;;20.98;12.90;;;;;;;6.97;100.00;99226.22;5013618;28;20053;-77
2022/02/04 10:38:41;;;;;;;25.38;15.73;;;;;;;7.14;100.00;99223.28;5012493;28;20084;-77
2022/02/04 10:41:31;;;;;;;23.63;14.70;;;;;;;7.28;100.00;99230.81;5012856;28;20041;-77
2022/02/04 10:44:28;;;;;;;21.48;13.27;;;;;;;7.16;100.00;99222.38;5026636;28;20455;-77
2022/02/04 10:47:30;;;;;;;22.70;12.60;;;;;;;7.29;100.00;99216.91;5026793;28;20042;-77
2022/02/04 10:56:55;;;;;;;20.75;13.07;;;;;;;7.62;100.00;99226.59;5012498;28;20486;-77
2022/02/04 11:00:03;;;;;;;23.80;14.07;;;;;;;7.53;100.00;99221.59;5025891;28;20665;-77
2022/02/04 11:52:04;;;;;;;23.63;14.45;;;;;;;8.19;100.00;99178.31;5012145;28;20072;-77
2022/02/04 11:54:54;;;;;;;53.78;22.48;;;;;;;8.21;100.00;99171.31;5011842;28;20042;-77
2022/02/04 11:57:49;;;;;;;73.55;30.67;;;;;;;8.07;100.00;99160.38;5026472;28;20038;-76
2022/02/04 12:00:41;;;;;;;80.70;32.90;;;;;;;8.11;100.00;99168.06;5025815;28;20042;-77
2022/02/04 12:03:36;;;;;;;124.45;51.42;;;;;;;8.23;100.00;99168.66;5011815;28;20042;-77
2022/02/04 12:06:28;;;;;;;73.53;36.10;;;;;;;8.32;100.00;99168.41;5013080;28;20050;-77
2022/02/04 12:09:35;;;;;;;53.45;29.08;;;;;;;8.24;100.00;99166.00;5012747;28;20046;-77
2022/02/04 12:12:55;;;;;;;53.88;28.85;;;;;;;8.22;100.00;99173.00;5025916;28;20139;-77
2022/02/04 12:15:47;;;;;;;86.57;44.53;;;;;;;8.13;100.00;99170.66;4958649;28;20444;-77
2022/02/04 12:18:40;;;;;;;57.70;30.15;;;;;;;8.14;100.00;99173.22;5025844;28;20058;-77
2022/02/04 12:21:24;;;;;;;39.80;21.73;;;;;;;8.08;100.00;99162.06;5012708;28;20079;-77
2022/02/04 12:24:29;;;;;;;23.77;14.52;;;;;;;8.01;100.00;99169.19;5029117;28;20057;-77
2022/02/04 12:27:30;;;;;;;20.13;12.32;;;;;;;8.04;100.00;99157.84;5015717;28;20355;-77
2022/02/04 12:30:35;;;;;;;41.28;22.75;;;;;;;7.93;100.00;99158.97;5015052;28;20046;-77
2022/02/04 12:33:19;;;;;;;24.95;17.70;;;;;;;7.89;100.00;99143.41;5029129;28;20455;-77
2022/02/04 12:36:04;;;;;;;20.35;14.38;;;;;;;7.78;100.00;99158.47;5016110;28;20103;-77
2022/02/04 12:38:51;;;;;;;25.73;16.85;;;;;;;7.62;100.00;99142.34;5015097;28;20049;-77
2022/02/04 12:41:41;;;;;;;25.33;19.70;;;;;;;7.62;100.00;99148.41;5028644;28;20348;-77
2022/02/04 12:44:33;;;;;;;36.55;24.85;;;;;;;7.54;100.00;99129.50;5028686;28;20439;-77
2022/02/04 12:47:24;;;;;;;28.63;18.97;;;;;;;7.59;100.00;99145.88;5028777;28;20045;-77
2022/02/04 12:50:08;;;;;;;23.98;15.85;;;;;;;7.57;100.00;99145.06;5028393;28;20046;-77
2022/02/04 12:52:53;;;;;;;28.33;17.35;;;;;;;7.66;100.00;99139.59;5015339;28;20049;-77
2022/02/04 12:55:58;;;;;;;29.55;19.58;;;;;;;7.77;100.00;99147.19;5015045;28;20129;-77
2022/02/04 12:59:07;;;;;;;32.22;18.77;;;;;;;7.73;100.00;99136.00;5015131;28;20042;-77
2022/02/04 13:02:18;;;;;;;36.63;21.10;;;;;;;7.78;100.00;99146.28;5015717;28;20065;-77
2022/02/04 13:11:01;;;;;;;20.52;13.38;;;;;;;7.82;100.00;99140.09;5014953;28;20440;-76
2022/02/04 13:13:49;;;;;;;21.55;14.45;;;;;;;7.89;100.00;99139.06;5030888;28;20065;-76
2022/02/04 13:16:35;;;;;;;18.63;11.85;;;;;;;7.85;100.00;99133.97;5013230;28;20034;-75
2022/02/04 13:19:19;;;;;;;18.23;11.85;;;;;;;7.78;100.00;99121.97;4984656;28;20053;-76
2022/02/04 13:22:04;;;;;;;13.60;10.02;;;;;;;7.93;100.00;99132.88;5013174;28;20049;-76
2022/02/04 13:25:32;;;;;;;19.05;12.45;;;;;;;7.88;100.00;99128.69;5013175;28;20042;-76
2022/02/04 13:28:19;;;;;;;15.35;11.15;;;;;;;7.90;100.00;99125.13;5053710;28;20052;-76
2022/02/04 13:31:11;;;;;;;15.68;10.43;;;;;;;7.85;100.00;99113.09;5053681;28;20049;-76
2022/02/04 13:33:57;;;;;;;16.17;10.98;;;;;;;7.70;100.00;99122.16;5026830;28;20138;-76
2022/02/04 13:36:53;;;;;;;16.45;10.98;;;;;;;7.78;100.00;99122.84;5014311;28;20038;-76
2022/02/04 13:42:48;;;;;;;16.90;10.82;;;;;;;7.76;100.00;99121.16;5014640;28;20401;-76
2022/02/04 13:45:41;;;;;;;13.93;10.30;;;;;;;7.74;100.00;99123.81;5014004;28;20041;-76
2022/02/04 13:48:40;;;;;;;18.02;11.50;;;;;;;7.65;100.00;99124.88;4999942;28;20042;-76
2022/02/04 13:57:50;;;;;;;20.30;12.13;;;;;;;7.54;100.00;99108.66;5014280;28;20072;-76
2022/02/04 14:03:49;;;;;;;17.35;10.52;;;;;;;7.35;100.00;99113.44;5013861;28;20110;-76
2022/02/04 14:06:33;;;;;;;18.35;10.65;;;;;;;7.31;100.00;99113.53;5013545;28;20065;-76
2022/02/04 14:09:21;;;;;;;20.05;12.20;;;;;;;7.43;100.00;99118.44;5013821;28;20067;-75
2022/02/04 14:12:20;;;;;;;20.05;12.82;;;;;;;7.48;100.00;99117.47;5000222;28;20046;-76
2022/02/04 14:15:05;;;;;;;26.45;14.68;;;;;;;7.42;100.00;99114.16;5014083;28;20052;-75
2022/02/04 14:17:55;;;;;;;23.05;13.45;;;;;;;7.44;100.00;99118.44;4999342;28;20420;-75
2022/02/04 14:20:42;;;;;;;30.33;15.88;;;;;;;7.31;100.00;99103.09;5013603;28;20045;-76
2022/02/04 14:23:27;;;;;;;23.63;12.35;;;;;;;7.35;100.00;99110.81;5013324;28;20042;-76
2022/02/04 14:26:23;;;;;;;21.35;13.40;;;;;;;7.28;100.00;99111.88;5013790;28;20157;-75
2022/02/04 14:29:13;;;;;;;18.40;11.98;;;;;;;7.17;100.00;99098.22;5013406;28;20403;-76
2022/02/04 15:04:12;;;;;;;164.07;84.15;;;;;;;6.94;100.00;99047.50;5013407;28;20050;-76
2022/02/04 15:07:00;;;;;;;111.43;56.97;;;;;;;6.94;100.00;99060.50;5012999;28;20066;-76
2022/02/04 15:09:56;;;;;;;121.88;63.97;;;;;;;6.88;100.00;99055.44;4998657;28;20048;-76
2022/02/04 15:12:43;;;;;;;109.25;74.50;;;;;;;6.86;100.00;99066.78;5012406;28;20052;-76
2022/02/04 15:15:27;;;;;;;133.98;94.47;;;;;;;6.77;100.00;99067.84;5013091;28;20046;-76
2022/02/04 15:18:12;;;;;;;125.07;88.45;;;;;;;6.69;100.00;99054.97;5013216;28;20050;-76
2022/02/04 15:21:00;;;;;;;80.53;64.90;;;;;;;6.65;100.00;99062.88;5013299;28;20038;-76
2022/02/04 15:23:47;;;;;;;32.90;25.65;;;;;;;6.55;100.00;99057.03;5012351;28;20038;-76
2022/02/04 15:26:31;;;;;;;21.48;13.13;;;;;;;6.55;100.00;99057.88;5012290;28;20042;-76
2022/02/04 15:29:18;;;;;;;24.38;14.43;;;;;;;6.48;100.00;99051.09;4998542;28;20050;-76
2022/02/04 15:32:03;;;;;;;115.10;51.17;;;;;;;6.51;100.00;99048.44;5013622;28;20416;-76
2022/02/04 15:34:50;;;;;;;205.75;92.38;;;;;;;6.52;100.00;99054.47;5012325;28;20058;-76
2022/02/04 15:37:34;;;;;;;54.88;28.50;;;;;;;6.41;100.00;99036.50;4998498;28;20042;-76
2022/02/04 15:40:19;;;;;;;34.92;18.67;;;;;;;6.38;100.00;99046.97;5013476;28;20056;-76
2022/02/04 15:43:05;;;;;;;43.10;24.15;;;;;;;6.40;100.00;99053.00;5013208;28;20038;-76
2022/02/04 15:55:10;;;;;;;77.95;45.50;;;;;;;6.37;100.00;99045.25;5012835;28;20041;-76
2022/02/04 15:58:16;;;;;;;83.20;56.92;;;;;;;6.35;100.00;99041.81;4999590;28;20041;-77
2022/02/04 16:01:19;;;;;;;67.22;48.30;;;;;;;6.28;100.00;99038.50;5014415;28;20050;-76
2022/02/04 16:04:20;;;;;;;39.42;27.15;;;;;;;6.24;100.00;99044.66;5014137;28;20459;-77
2022/02/04 16:07:05;;;;;;;31.90;19.05;;;;;;;6.30;100.00;99047.13;5014542;28;20038;-76
2022/02/04 16:09:59;;;;;;;20.95;14.23;;;;;;;6.29;100.00;99044.53;5014407;28;20046;-76
2022/02/04 16:12:53;;;;;;;22.67;12.63;;;;;;;6.26;100.00;99040.25;5000501;28;20355;-77
2022/02/04 16:15:53;;;;;;;20.70;11.75;;;;;;;6.22;100.00;99041.19;5015747;28;20053;-77
2022/02/04 16:18:44;;;;;;;17.20;11.00;;;;;;;5.91;100.00;98982.84;5014186;28;20363;-77
2022/02/04 16:24:38;;;;;;;18.02;10.93;;;;;;;6.12;100.00;99031.03;5015006;28;20050;-77
2022/02/04 16:30:08;;;;;;;22.42;12.80;;;;;;;6.01;100.00;99019.09;5014847;28;20057;-77
2022/02/04 16:32:53;;;;;;;21.92;13.70;;;;;;;6.01;100.00;99013.88;5014734;28;20484;-77
2022/02/04 16:35:38;;;;;;;20.02;10.93;;;;;;;5.95;100.00;99005.34;5014723;28;20046;-77
2022/02/04 16:38:23;;;;;;;19.73;12.27;;;;;;;5.98;100.00;99008.75;5014848;28;20053;-77
2022/02/04 16:41:10;;;;;;;27.00;14.93;;;;;;;5.96;100.00;99005.31;5014810;28;20038;-77
2022/02/04 16:43:56;;;;;;;19.95;12.55;;;;;;;5.96;100.00;98996.66;5014742;28;20046;-76
2022/02/04 16:46:40;;;;;;;26.23;13.70;;;;;;;5.91;100.00;99011.44;5015346;28;20509;-76
2022/02/04 16:49:25;;;;;;;26.90;13.52;;;;;;;5.96;100.00;99009.66;5015271;28;20446;-76
2022/02/04 16:52:10;;;;;;;40.28;17.67;;;;;;;5.94;100.00;99004.47;5014609;28;20050;-76
2022/02/04 16:54:55;;;;;;;52.08;23.65;;;;;;;5.89;100.00;98998.47;5014412;28;20058;-76
2022/02/04 16:57:40;;;;;;;45.72;23.83;;;;;;;5.93;100.00;99005.38;5014351;28;20046;-76
2022/02/04 17:00:26;;;;;;;52.42;24.02;;;;;;;5.90;100.00;98997.59;5014485;28;20043;-76
2022/02/04 17:03:11;;;;;;;53.78;25.13;;;;;;;5.80;100.00;98998.66;5014497;28;20042;-76
2022/02/04 17:06:00;;;;;;;57.95;24.13;;;;;;;5.84;100.00;98995.09;5015291;28;20095;-76
2022/02/04 17:08:52;;;;;;;48.55;22.50;;;;;;;5.87;100.00;99000.25;5014107;28;20368;-76
2022/02/04 17:11:41;;;;;;;63.45;28.40;;;;;;;5.67;100.00;98969.44;5000451;28;20053;-76
2022/02/04 17:14:26;;;;;;;38.00;20.45;;;;;;;5.84;100.00;98995.09;5014293;28;20187;-76
2022/02/04 17:17:10;;;;;;;50.95;23.27;;;;;;;5.82;100.00;99002.09;5014858;28;20057;-76
2022/02/04 17:20:10;;;;;;;44.58;22.77;;;;;;;5.83;100.00;99003.78;5014384;28;20049;-76
2022/02/04 17:22:57;;;;;;;74.68;29.63;;;;;;;5.65;100.00;98971.19;5014090;28;20439;-76
2022/02/04 17:25:44;;;;;;;47.65;21.60;;;;;;;5.80;100.00;99003.84;5000333;28;20042;-76
2022/02/04 17:28:30;;;;;;;26.45;14.50;;;;;;;5.83;100.00;98999.44;5013885;28;20038;-76
2022/02/04 17:31:14;;;;;;;24.20;13.05;;;;;;;5.83;100.00;99001.19;5013986;28;20073;-76
2022/02/04 17:33:59;;;;;;;34.05;16.83;;;;;;;5.74;100.00;99001.34;5013940;28;20042;-76
2022/02/04 17:36:44;;;;;;;26.90;14.77;;;;;;;5.73;100.00;98999.66;5000127;28;20117;-76
2022/02/04 17:39:28;;;;;;;24.92;13.68;;;;;;;5.71;100.00;98997.06;5014566;28;20042;-76
2022/02/04 17:42:13;;;;;;;26.48;14.70;;;;;;;5.72;100.00;99001.41;5014474;28;20117;-85
2022/02/04 17:44:58;;;;;;;25.80;13.77;;;;;;;5.80;100.00;99011.66;5013835;28;20091;-74
2022/02/04 17:47:43;;;;;;;24.55;13.63;;;;;;;5.76;100.00;98999.59;5013603;28;20474;-74
2022/02/04 17:50:39;;;;;;;25.55;15.02;;;;;;;5.72;100.00;98992.72;5013740;28;20042;-74
2022/02/04 17:53:27;;;;;;;30.42;16.83;;;;;;;5.72;100.00;98983.22;4999838;28;20038;-74
2022/02/04 17:56:27;;;;;;;39.20;19.23;;;;;;;5.69;100.00;98992.78;4999755;28;20079;-74
2022/02/04 17:59:31;;;;;;;31.30;17.83;;;;;;;5.77;100.00;98993.50;5013714;28;20046;-75
2022/02/04 18:02:59;;;;;;;30.58;16.67;;;;;;;5.69;100.00;98985.88;4999796;28;20439;-74
2022/02/04 18:08:31;;;;;;;40.70;30.85;;;;;;;5.71;100.00;98985.81;5013996;28;20355;-75
2022/02/04 18:11:15;;;;;;;30.35;19.38;;;;;;;5.61;100.00;98980.78;4999758;28;20493;-75
2022/02/04 18:14:00;;;;;;;23.38;13.00;;;;;;;5.72;100.00;98982.34;4999616;28;20440;-74
2022/02/04 18:16:45;;;;;;;25.30;14.35;;;;;;;5.72;100.00;98984.94;4999465;28;20042;-75
2022/02/04 18:19:30;;;;;;;21.10;13.77;;;;;;;5.62;100.00;98977.34;5013249;28;20050;-74
2022/02/04 18:22:14;;;;;;;27.02;15.82;;;;;;;5.61;100.00;98973.00;5013204;28;20099;-74
2022/02/04 18:24:59;;;;;;;23.77;14.90;;;;;;;5.65;100.00;98971.19;5013236;28;20049;-74
2022/02/04 18:27:46;;;;;;;21.67;13.85;;;;;;;5.67;100.00;98972.03;4999196;28;20121;-74
2022/02/04 18:30:35;;;;;;;18.65;10.77;;;;;;;5.54;100.00;98955.81;5013745;28;20053;-74
2022/02/04 18:33:19;;;;;;;20.15;12.15;;;;;;;5.71;100.00;98965.88;5013157;28;20060;-74
2022/02/04 18:36:04;;;;;;;20.13;13.40;;;;;;;5.66;100.00;98952.16;5013184;28;20053;-75
2022/02/04 18:38:53;;;;;;;19.80;11.10;;;;;;;5.76;100.00;98955.44;5012892;28;20046;-74
2022/02/04 18:44:54;;;;;;;19.58;12.00;;;;;;;5.64;100.00;98951.31;4998967;28;20054;-74
2022/02/04 18:47:57;;;;;;;19.13;12.40;;;;;;;5.68;100.00;98941.72;5012820;28;20053;-74
2022/02/04 18:51:00;;;;;;;19.65;11.60;;;;;;;5.59;100.00;98938.41;5012755;28;20042;-75
2022/02/04 18:53:56;;;;;;;23.00;14.40;;;;;;;5.58;100.00;98936.69;5013397;28;20048;-74
2022/02/04 18:59:46;;;;;;;20.42;11.93;;;;;;;5.61;100.00;98947.03;4998689;28;20042;-75
2022/02/04 19:02:31;;;;;;;22.08;13.23;;;;;;;5.59;100.00;98950.56;5011572;28;20046;-75
2022/02/04 19:05:30;;;;;;;23.25;13.52;;;;;;;5.63;100.00;98950.44;4996962;28;20033;-75
2022/02/04 19:08:24;;;;;;;20.42;12.35;;;;;;;5.59;100.00;98953.16;5010856;28;20041;-75
2022/02/04 19:11:10;;;;;;;21.55;12.95;;;;;;;5.65;100.00;98955.59;5011544;28;20432;-75
2022/02/04 19:14:07;;;;;;;21.50;11.60;;;;;;;5.57;100.00;98939.31;5011693;28;20045;-75